sensor_id;sensor_type;location;lat;lon;timestamp;pressure;altitude;pressure_sealevel;temperature;humidity
28004;BME280;15330;51.234;6.754;2023-07-29T00:00:19;100225.84;;;19.15;100.00
28004;BME280;15330;51.234;6.754;2023-07-29T00:02:45;100222.69;;;19.18;100.00
28004;BME280;15330;51.234;6.754;2023-07-29T00:05:11;100223.75;;;19.17;100.00
28004;BME280;15330;51.234;6.754;2023-07-29T00:07:36;100219.16;;;19.17;100.00
28004;BME280;15330;51.234;6.754;2023-07-29T00:10:02;100212.31;;;19.15;100.00
28004;BME280;15330;51.234;6.754;2023-07-29T00:12:28;100214.19;;;19.14;100.00
28004;BME280;15330;51.234;6.754;2023-07-29T00:14:54;100206.66;;;19.16;100.00
28004;BME280;15330;51.234;6.754;2023-07-29T00:17:19;100203.00;;;19.22;100.00
28004;BME280;15330;51.234;6.754;2023-07-29T00:19:45;100203.94;;;19.16;100.00
28004;BME280;15330;51.234;6.754;2023-07-29T00:22:11;100194.13;;;19.03;100.00
28004;BME280;15330;51.234;6.754;2023-07-29T00:24:36;100202.19;;;19.10;100.00
28004;BME280;15330;51.234;6.754;2023-07-29T00:27:01;100207.81;;;19.09;100.00
28004;BME280;15330;51.234;6.754;2023-07-29T00:29:27;100198.50;;;19.04;100.00
28004;BME280;15330;51.234;6.754;2023-07-29T00:31:52;100205.13;;;19.09;100.00
28004;BME280;15330;51.234;6.754;2023-07-29T00:34:18;100207.09;;;19.13;100.00
28004;BME280;15330;51.234;6.754;2023-07-29T00:36:47;100203.72;;;19.18;100.00
28004;BME280;15330;51.234;6.754;2023-07-29T00:39:13;100192.72;;;19.13;100.00
28004;BME280;15330;51.234;6.754;2023-07-29T00:41:39;100194.09;;;18.92;100.00
28004;BME280;15330;51.234;6.754;2023-07-29T00:44:04;100193.66;;;18.95;100.00
28004;BME280;15330;51.234;6.754;2023-07-29T00:46:29;100190.94;;;18.95;100.00
28004;BME280;15330;51.234;6.754;2023-07-29T00:48:55;100186.09;;;18.85;100.00
28004;BME280;15330;51.234;6.754;2023-07-29T00:51:21;100188.09;;;18.90;100.00
28004;BME280;15330;51.234;6.754;2023-07-29T00:53:46;100192.00;;;18.94;100.00
28004;BME280;15330;51.234;6.754;2023-07-29T00:56:12;100191.31;;;18.98;100.00
28004;BME280;15330;51.234;6.754;2023-07-29T00:58:38;100184.00;;;18.99;100.00
28004;BME280;15330;51.234;6.754;2023-07-29T01:01:03;100192.47;;;19.02;100.00
28004;BME280;15330;51.234;6.754;2023-07-29T01:03:29;100192.03;;;19.05;100.00
28004;BME280;15330;51.234;6.754;2023-07-29T01:06:20;100180.56;;;18.92;100.00
28004;BME280;15330;51.234;6.754;2023-07-29T01:09:07;100175.25;;;18.85;100.00
28004;BME280;15330;51.234;6.754;2023-07-29T01:11:55;100177.63;;;18.93;100.00
28004;BME280;15330;51.234;6.754;2023-07-29T01:17:08;100181.38;;;18.92;100.00
28004;BME280;15330;51.234;6.754;2023-07-29T01:22:09;100171.75;;;18.96;100.00
28004;BME280;15330;51.234;6.754;2023-07-29T01:24:35;100159.84;;;18.97;100.00
28004;BME280;15330;51.234;6.754;2023-07-29T01:27:01;100160.28;;;18.94;100.00
28004;BME280;15330;51.234;6.754;2023-07-29T01:29:30;100168.91;;;19.03;100.00
28004;BME280;15330;51.234;6.754;2023-07-29T01:32:08;100173.50;;;19.02;100.00
28004;BME280;15330;51.234;6.754;2023-07-29T01:34:41;100172.91;;;19.00;100.00
28004;BME280;15330;51.234;6.754;2023-07-29T01:37:13;100169.38;;;19.00;100.00
28004;BME280;15330;51.234;6.754;2023-07-29T01:39:41;100163.69;;;18.90;100.00
28004;BME280;15330;51.234;6.754;2023-07-29T01:42:08;100174.00;;;18.99;100.00
28004;BME280;15330;51.234;6.754;2023-07-29T01:44:34;100164.06;;;18.93;100.00
28004;BME280;15330;51.234;6.754;2023-07-29T01:47:00;100164.19;;;18.98;100.00
28004;BME280;15330;51.234;6.754;2023-07-29T01:49:26;100157.47;;;19.01;100.00
28004;BME280;15330;51.234;6.754;2023-07-29T01:51:51;100159.94;;;19.02;100.00
28004;BME280;15330;51.234;6.754;2023-07-29T01:54:17;100161.59;;;19.03;100.00
28004;BME280;15330;51.234;6.754;2023-07-29T01:56:42;100149.09;;;19.02;100.00
28004;BME280;15330;51.234;6.754;2023-07-29T01:59:07;100153.94;;;18.89;100.00
28004;BME280;15330;51.234;6.754;2023-07-29T02:01:33;100148.16;;;18.97;100.00
28004;BME280;15330;51.234;6.754;2023-07-29T02:03:58;100141.69;;;18.98;100.00
28004;BME280;15330;51.234;6.754;2023-07-29T02:06:23;100125.53;;;18.91;100.00
28004;BME280;15330;51.234;6.754;2023-07-29T02:08:49;100134.94;;;19.00;100.00
28004;BME280;15330;51.234;6.754;2023-07-29T02:11:14;100143.94;;;18.89;100.00
28004;BME280;15330;51.234;6.754;2023-07-29T02:13:40;100145.91;;;18.94;100.00
28004;BME280;15330;51.234;6.754;2023-07-29T02:16:05;100147.56;;;18.95;100.00
28004;BME280;15330;51.234;6.754;2023-07-29T02:18:30;100153.22;;;18.93;100.00
28004;BME280;15330;51.234;6.754;2023-07-29T02:20:56;100152.84;;;18.90;100.00
28004;BME280;15330;51.234;6.754;2023-07-29T02:23:21;100165.50;;;18.96;100.00
28004;BME280;15330;51.234;6.754;2023-07-29T02:25:46;100160.19;;;19.01;100.00
28004;BME280;15330;51.234;6.754;2023-07-29T02:28:12;100170.44;;;18.99;100.00
28004;BME280;15330;51.234;6.754;2023-07-29T02:30:41;100166.91;;;18.98;100.00
28004;BME280;15330;51.234;6.754;2023-07-29T02:33:06;100148.28;;;19.02;100.00
28004;BME280;15330;51.234;6.754;2023-07-29T02:35:32;100150.50;;;18.93;100.00
28004;BME280;15330;51.234;6.754;2023-07-29T02:37:57;100150.13;;;18.90;100.00
28004;BME280;15330;51.234;6.754;2023-07-29T02:40:23;100143.44;;;18.92;100.00
28004;BME280;15330;51.234;6.754;2023-07-29T02:42:50;100135.91;;;18.94;100.00
28004;BME280;15330;51.234;6.754;2023-07-29T02:45:15;100141.78;;;18.91;100.00
28004;BME280;15330;51.234;6.754;2023-07-29T02:47:40;100146.50;;;18.84;100.00
28004;BME280;15330;51.234;6.754;2023-07-29T02:50:06;100146.63;;;18.89;100.00
28004;BME280;15330;51.234;6.754;2023-07-29T02:52:32;100147.81;;;18.93;100.00
28004;BME280;15330;51.234;6.754;2023-07-29T02:54:57;100152.16;;;18.94;100.00
28004;BME280;15330;51.234;6.754;2023-07-29T02:57:22;100149.91;;;18.91;100.00
28004;BME280;15330;51.234;6.754;2023-07-29T02:59:47;100150.06;;;18.96;100.00
28004;BME280;15330;51.234;6.754;2023-07-29T03:02:13;100145.56;;;18.90;100.00
28004;BME280;15330;51.234;6.754;2023-07-29T03:04:39;100144.16;;;18.88;100.00
28004;BME280;15330;51.234;6.754;2023-07-29T03:07:05;100152.16;;;18.94;100.00
28004;BME280;15330;51.234;6.754;2023-07-29T03:09:30;100151.53;;;18.81;100.00
28004;BME280;15330;51.234;6.754;2023-07-29T03:11:55;100148.84;;;18.81;100.00
28004;BME280;15330;51.234;6.754;2023-07-29T03:14:22;100152.38;;;18.81;100.00
28004;BME280;15330;51.234;6.754;2023-07-29T03:16:47;100143.78;;;18.84;100.00
28004;BME280;15330;51.234;6.754;2023-07-29T03:19:12;100135.66;;;18.84;100.00
28004;BME280;15330;51.234;6.754;2023-07-29T03:21:38;100140.72;;;18.81;100.00
28004;BME280;15330;51.234;6.754;2023-07-29T03:24:03;100142.72;;;18.85;100.00
28004;BME280;15330;51.234;6.754;2023-07-29T03:26:28;100142.38;;;18.82;100.00
28004;BME280;15330;51.234;6.754;2023-07-29T03:28:54;100135.19;;;18.76;100.00
28004;BME280;15330;51.234;6.754;2023-07-29T03:31:20;100131.63;;;18.75;100.00
28004;BME280;15330;51.234;6.754;2023-07-29T03:33:45;100132.34;;;18.82;100.00
28004;BME280;15330;51.234;6.754;2023-07-29T03:36:10;100126.94;;;18.82;100.00
28004;BME280;15330;51.234;6.754;2023-07-29T03:38:36;100129.03;;;18.80;100.00
28004;BME280;15330;51.234;6.754;2023-07-29T03:41:06;100124.34;;;18.87;100.00
28004;BME280;15330;51.234;6.754;2023-07-29T03:43:31;100115.63;;;18.85;100.00
28004;BME280;15330;51.234;6.754;2023-07-29T03:45:56;100126.84;;;18.89;100.00
28004;BME280;15330;51.234;6.754;2023-07-29T03:48:22;100137.91;;;18.87;100.00
28004;BME280;15330;51.234;6.754;2023-07-29T03:50:47;100137.78;;;18.82;100.00
28004;BME280;15330;51.234;6.754;2023-07-29T03:53:12;100146.00;;;18.76;100.00
28004;BME280;15330;51.234;6.754;2023-07-29T03:55:38;100159.44;;;18.82;100.00
28004;BME280;15330;51.234;6.754;2023-07-29T03:58:03;100144.47;;;18.80;100.00
28004;BME280;15330;51.234;6.754;2023-07-29T04:00:29;100143.41;;;18.81;100.00
28004;BME280;15330;51.234;6.754;2023-07-29T04:02:54;100148.72;;;18.76;100.00
28004;BME280;15330;51.234;6.754;2023-07-29T04:05:19;100138.56;;;18.71;100.00
28004;BME280;15330;51.234;6.754;2023-07-29T04:07:45;100150.38;;;18.77;100.00
28004;BME280;15330;51.234;6.754;2023-07-29T04:10:11;100146.09;;;18.69;100.00
28004;BME280;15330;51.234;6.754;2023-07-29T04:12:36;100153.66;;;18.67;100.00
28004;BME280;15330;51.234;6.754;2023-07-29T04:15:02;100144.13;;;18.76;100.00
28004;BME280;15330;51.234;6.754;2023-07-29T04:17:28;100138.72;;;18.76;100.00
28004;BME280;15330;51.234;6.754;2023-07-29T04:19:53;100126.81;;;18.77;100.00
28004;BME280;15330;51.234;6.754;2023-07-29T04:22:18;100160.03;;;18.73;100.00
28004;BME280;15330;51.234;6.754;2023-07-29T04:24:44;100162.03;;;18.77;100.00
28004;BME280;15330;51.234;6.754;2023-07-29T04:27:09;100166.50;;;18.72;100.00
28004;BME280;15330;51.234;6.754;2023-07-29T04:29:36;100181.59;;;18.67;100.00
28004;BME280;15330;51.234;6.754;2023-07-29T04:32:02;100186.50;;;18.70;100.00
28004;BME280;15330;51.234;6.754;2023-07-29T04:34:28;100185.59;;;18.77;100.00
28004;BME280;15330;51.234;6.754;2023-07-29T04:36:53;100186.41;;;18.65;100.00
28004;BME280;15330;51.234;6.754;2023-07-29T04:39:18;100190.38;;;18.63;100.00
28004;BME280;15330;51.234;6.754;2023-07-29T04:41:44;100181.06;;;18.59;100.00
28004;BME280;15330;51.234;6.754;2023-07-29T04:44:09;100192.28;;;18.62;100.00
28004;BME280;15330;51.234;6.754;2023-07-29T04:46:36;100189.78;;;18.61;100.00
28004;BME280;15330;51.234;6.754;2023-07-29T04:49:01;100188.97;;;18.60;100.00
28004;BME280;15330;51.234;6.754;2023-07-29T04:51:28;100188.59;;;18.57;100.00
28004;BME280;15330;51.234;6.754;2023-07-29T04:53:53;100177.16;;;18.55;100.00
28004;BME280;15330;51.234;6.754;2023-07-29T04:56:18;100174.75;;;18.47;100.00
28004;BME280;15330;51.234;6.754;2023-07-29T04:58:44;100173.53;;;18.61;100.00
28004;BME280;15330;51.234;6.754;2023-07-29T05:01:09;100161.25;;;18.58;100.00
28004;BME280;15330;51.234;6.754;2023-07-29T05:03:35;100149.47;;;18.53;100.00
28004;BME280;15330;51.234;6.754;2023-07-29T05:06:00;100151.50;;;18.57;100.00
28004;BME280;15330;51.234;6.754;2023-07-29T05:08:26;100155.44;;;18.73;100.00
28004;BME280;15330;51.234;6.754;2023-07-29T05:10:52;100141.50;;;18.69;100.00
28004;BME280;15330;51.234;6.754;2023-07-29T05:13:18;100153.19;;;18.70;100.00
28004;BME280;15330;51.234;6.754;2023-07-29T05:15:44;100151.44;;;18.76;100.00
28004;BME280;15330;51.234;6.754;2023-07-29T05:18:09;100162.16;;;18.82;100.00
28004;BME280;15330;51.234;6.754;2023-07-29T05:20:35;100170.28;;;18.82;100.00
28004;BME280;15330;51.234;6.754;2023-07-29T05:23:00;100173.09;;;18.76;100.00
28004;BME280;15330;51.234;6.754;2023-07-29T05:25:26;100185.72;;;18.82;100.00
28004;BME280;15330;51.234;6.754;2023-07-29T05:27:51;100190.97;;;18.65;100.00
28004;BME280;15330;51.234;6.754;2023-07-29T05:30:17;100201.72;;;18.72;100.00
28004;BME280;15330;51.234;6.754;2023-07-29T05:32:42;100202.34;;;18.55;100.00
28004;BME280;15330;51.234;6.754;2023-07-29T05:35:08;100203.81;;;18.69;100.00
28004;BME280;15330;51.234;6.754;2023-07-29T05:37:33;100206.25;;;18.59;100.00
28004;BME280;15330;51.234;6.754;2023-07-29T05:39:59;100206.34;;;18.53;100.00
28004;BME280;15330;51.234;6.754;2023-07-29T05:42:24;100200.31;;;18.51;100.00
28004;BME280;15330;51.234;6.754;2023-07-29T05:44:50;100190.19;;;18.46;100.00
28004;BME280;15330;51.234;6.754;2023-07-29T05:47:15;100200.47;;;18.56;100.00
28004;BME280;15330;51.234;6.754;2023-07-29T05:49:41;100215.81;;;18.62;100.00
28004;BME280;15330;51.234;6.754;2023-07-29T05:52:06;100217.63;;;18.68;100.00
28004;BME280;15330;51.234;6.754;2023-07-29T05:54:32;100221.50;;;18.72;100.00
28004;BME280;15330;51.234;6.754;2023-07-29T05:56:58;100234.72;;;18.80;100.00
28004;BME280;15330;51.234;6.754;2023-07-29T05:59:23;100221.69;;;18.59;100.00
28004;BME280;15330;51.234;6.754;2023-07-29T06:01:48;100223.41;;;18.53;100.00
28004;BME280;15330;51.234;6.754;2023-07-29T06:04:14;100242.38;;;18.53;100.00
28004;BME280;15330;51.234;6.754;2023-07-29T06:06:39;100257.69;;;18.48;100.00
28004;BME280;15330;51.234;6.754;2023-07-29T06:09:04;100252.16;;;18.54;100.00
28004;BME280;15330;51.234;6.754;2023-07-29T06:11:30;100249.63;;;18.41;100.00
28004;BME280;15330;51.234;6.754;2023-07-29T06:13:55;100249.06;;;18.51;100.00
28004;BME280;15330;51.234;6.754;2023-07-29T06:16:20;100266.53;;;18.55;100.00
28004;BME280;15330;51.234;6.754;2023-07-29T06:18:46;100255.31;;;18.69;100.00
28004;BME280;15330;51.234;6.754;2023-07-29T06:21:11;100261.44;;;18.65;100.00
28004;BME280;15330;51.234;6.754;2023-07-29T06:23:42;100259.00;;;18.57;100.00
28004;BME280;15330;51.234;6.754;2023-07-29T06:26:08;100252.09;;;18.43;100.00
28004;BME280;15330;51.234;6.754;2023-07-29T06:28:33;100266.69;;;18.42;100.00
28004;BME280;15330;51.234;6.754;2023-07-29T06:30:59;100270.28;;;18.72;100.00
28004;BME280;15330;51.234;6.754;2023-07-29T06:33:24;100267.50;;;18.60;100.00
28004;BME280;15330;51.234;6.754;2023-07-29T06:35:49;100275.34;;;18.68;100.00
28004;BME280;15330;51.234;6.754;2023-07-29T06:38:15;100275.25;;;18.75;100.00
28004;BME280;15330;51.234;6.754;2023-07-29T06:40:44;100266.69;;;18.60;100.00
28004;BME280;15330;51.234;6.754;2023-07-29T06:43:09;100260.88;;;18.56;100.00
28004;BME280;15330;51.234;6.754;2023-07-29T06:45:35;100259.94;;;18.81;100.00
28004;BME280;15330;51.234;6.754;2023-07-29T06:48:00;100255.56;;;18.80;100.00
28004;BME280;15330;51.234;6.754;2023-07-29T06:50:25;100254.47;;;18.69;100.00
28004;BME280;15330;51.234;6.754;2023-07-29T06:52:51;100253.13;;;18.78;100.00
28004;BME280;15330;51.234;6.754;2023-07-29T06:55:16;100261.59;;;18.82;100.00
28004;BME280;15330;51.234;6.754;2023-07-29T06:57:41;100264.91;;;18.84;100.00
28004;BME280;15330;51.234;6.754;2023-07-29T07:00:07;100266.69;;;18.90;100.00
28004;BME280;15330;51.234;6.754;2023-07-29T07:02:34;100273.03;;;18.84;100.00
28004;BME280;15330;51.234;6.754;2023-07-29T07:04:59;100271.44;;;18.94;100.00
28004;BME280;15330;51.234;6.754;2023-07-29T07:07:25;100267.00;;;18.82;100.00
28004;BME280;15330;51.234;6.754;2023-07-29T07:09:50;100270.00;;;18.92;100.00
28004;BME280;15330;51.234;6.754;2023-07-29T07:12:15;100270.03;;;19.03;100.00
28004;BME280;15330;51.234;6.754;2023-07-29T07:14:41;100265.66;;;19.02;100.00
28004;BME280;15330;51.234;6.754;2023-07-29T07:17:06;100259.69;;;19.24;100.00
28004;BME280;15330;51.234;6.754;2023-07-29T07:19:31;100262.44;;;19.35;100.00
28004;BME280;15330;51.234;6.754;2023-07-29T07:21:57;100269.34;;;19.61;100.00
28004;BME280;15330;51.234;6.754;2023-07-29T07:24:22;100264.25;;;20.00;100.00
28004;BME280;15330;51.234;6.754;2023-07-29T07:26:47;100265.75;;;20.07;100.00
28004;BME280;15330;51.234;6.754;2023-07-29T07:29:14;100272.38;;;20.00;100.00
28004;BME280;15330;51.234;6.754;2023-07-29T07:31:39;100279.47;;;20.12;100.00
28004;BME280;15330;51.234;6.754;2023-07-29T07:34:04;100293.13;;;20.41;100.00
28004;BME280;15330;51.234;6.754;2023-07-29T07:36:30;100300.72;;;19.81;100.00
28004;BME280;15330;51.234;6.754;2023-07-29T07:38:56;100281.97;;;19.67;100.00
28004;BME280;15330;51.234;6.754;2023-07-29T07:41:21;100286.28;;;20.15;100.00
28004;BME280;15330;51.234;6.754;2023-07-29T07:43:47;100292.91;;;20.42;100.00
28004;BME280;15330;51.234;6.754;2023-07-29T07:46:12;100295.69;;;20.47;100.00
28004;BME280;15330;51.234;6.754;2023-07-29T07:48:38;100289.25;;;21.22;100.00
28004;BME280;15330;51.234;6.754;2023-07-29T07:51:13;100296.88;;;21.37;100.00
28004;BME280;15330;51.234;6.754;2023-07-29T07:53:38;100291.41;;;22.04;100.00
28004;BME280;15330;51.234;6.754;2023-07-29T07:56:04;100288.00;;;21.13;98.60
28004;BME280;15330;51.234;6.754;2023-07-29T07:58:29;100291.81;;;21.29;96.02
28004;BME280;15330;51.234;6.754;2023-07-29T08:01:05;100283.41;;;20.85;99.55
28004;BME280;15330;51.234;6.754;2023-07-29T08:03:31;100292.13;;;20.87;97.81
28004;BME280;15330;51.234;6.754;2023-07-29T08:05:57;100289.03;;;20.95;96.85
28004;BME280;15330;51.234;6.754;2023-07-29T08:08:22;100287.72;;;21.26;96.51
28004;BME280;15330;51.234;6.754;2023-07-29T08:10:47;100292.66;;;21.46;97.77
28004;BME280;15330;51.234;6.754;2023-07-29T08:13:13;100290.00;;;21.84;93.65
28004;BME280;15330;51.234;6.754;2023-07-29T08:15:38;100300.06;;;21.84;92.89
28004;BME280;15330;51.234;6.754;2023-07-29T08:18:03;100296.84;;;21.70;92.01
28004;BME280;15330;51.234;6.754;2023-07-29T08:20:29;100263.50;;;21.13;90.72
28004;BME280;15330;51.234;6.754;2023-07-29T08:22:54;100290.94;;;21.56;94.29
28004;BME280;15330;51.234;6.754;2023-07-29T08:25:19;100291.09;;;21.67;90.75
28004;BME280;15330;51.234;6.754;2023-07-29T08:27:45;100295.78;;;21.88;88.41
28004;BME280;15330;51.234;6.754;2023-07-29T08:30:10;100293.38;;;22.08;90.10
28004;BME280;15330;51.234;6.754;2023-07-29T08:32:36;100281.41;;;22.09;90.25
28004;BME280;15330;51.234;6.754;2023-07-29T08:35:01;100284.81;;;22.65;89.91
28004;BME280;15330;51.234;6.754;2023-07-29T08:37:27;100286.47;;;22.88;87.04
28004;BME280;15330;51.234;6.754;2023-07-29T08:39:52;100278.06;;;23.21;86.23
28004;BME280;15330;51.234;6.754;2023-07-29T08:42:19;100262.63;;;23.37;84.30
28004;BME280;15330;51.234;6.754;2023-07-29T08:44:49;100271.84;;;22.28;82.42
28004;BME280;15330;51.234;6.754;2023-07-29T08:47:14;100262.16;;;22.16;83.05
28004;BME280;15330;51.234;6.754;2023-07-29T08:49:40;100276.78;;;22.53;82.48
28004;BME280;15330;51.234;6.754;2023-07-29T08:52:06;100266.56;;;22.44;81.51
28004;BME280;15330;51.234;6.754;2023-07-29T08:54:32;100268.72;;;22.63;81.85
28004;BME280;15330;51.234;6.754;2023-07-29T08:56:58;100280.81;;;23.26;82.52
28004;BME280;15330;51.234;6.754;2023-07-29T08:59:25;100278.72;;;23.01;82.33
28004;BME280;15330;51.234;6.754;2023-07-29T09:01:51;100282.97;;;22.92;79.83
28004;BME280;15330;51.234;6.754;2023-07-29T09:04:20;100290.59;;;22.68;80.99
28004;BME280;15330;51.234;6.754;2023-07-29T09:06:47;100291.75;;;22.29;82.99
28004;BME280;15330;51.234;6.754;2023-07-29T09:09:13;100295.31;;;22.29;82.74
28004;BME280;15330;51.234;6.754;2023-07-29T09:11:38;100300.97;;;22.06;83.47
28004;BME280;15330;51.234;6.754;2023-07-29T09:14:03;100307.13;;;22.18;85.16
28004;BME280;15330;51.234;6.754;2023-07-29T09:16:29;100302.75;;;22.17;84.84
28004;BME280;15330;51.234;6.754;2023-07-29T09:18:54;100288.81;;;21.97;85.96
28004;BME280;15330;51.234;6.754;2023-07-29T09:21:24;100300.16;;;21.89;86.74
28004;BME280;15330;51.234;6.754;2023-07-29T09:23:54;100308.97;;;21.96;87.47
28004;BME280;15330;51.234;6.754;2023-07-29T09:26:26;100306.84;;;21.98;87.50
28004;BME280;15330;51.234;6.754;2023-07-29T09:28:56;100305.28;;;21.69;88.45
28004;BME280;15330;51.234;6.754;2023-07-29T09:31:23;100301.81;;;21.56;88.94
28004;BME280;15330;51.234;6.754;2023-07-29T09:33:49;100304.88;;;21.43;87.97
28004;BME280;15330;51.234;6.754;2023-07-29T09:36:15;100294.16;;;21.08;89.45
28004;BME280;15330;51.234;6.754;2023-07-29T09:38:40;100303.53;;;21.29;89.20
28004;BME280;15330;51.234;6.754;2023-07-29T09:41:06;100301.75;;;21.06;90.63
28004;BME280;15330;51.234;6.754;2023-07-29T09:43:33;100305.19;;;21.02;91.14
28004;BME280;15330;51.234;6.754;2023-07-29T09:46:02;100298.44;;;21.04;91.02
28004;BME280;15330;51.234;6.754;2023-07-29T09:48:31;100307.81;;;21.25;90.20
28004;BME280;15330;51.234;6.754;2023-07-29T09:50:57;100305.38;;;21.57;90.48
28004;BME280;15330;51.234;6.754;2023-07-29T09:53:22;100292.75;;;21.51;88.03
28004;BME280;15330;51.234;6.754;2023-07-29T09:55:49;100286.53;;;21.72;87.58
28004;BME280;15330;51.234;6.754;2023-07-29T09:58:19;100290.81;;;22.02;85.16
28004;BME280;15330;51.234;6.754;2023-07-29T10:00:51;100298.44;;;22.43;83.60
28004;BME280;15330;51.234;6.754;2023-07-29T10:03:21;100300.31;;;22.59;83.56
28004;BME280;15330;51.234;6.754;2023-07-29T10:05:47;100304.44;;;22.62;82.06
28004;BME280;15330;51.234;6.754;2023-07-29T10:08:13;100293.56;;;23.16;81.45
28004;BME280;15330;51.234;6.754;2023-07-29T10:10:42;100287.59;;;23.19;80.50
28004;BME280;15330;51.234;6.754;2023-07-29T10:13:09;100286.00;;;22.96;79.62
28004;BME280;15330;51.234;6.754;2023-07-29T10:15:35;100281.22;;;23.08;77.97
28004;BME280;15330;51.234;6.754;2023-07-29T10:18:02;100287.78;;;23.39;77.82
28004;BME280;15330;51.234;6.754;2023-07-29T10:20:30;100283.19;;;23.76;77.04
28004;BME280;15330;51.234;6.754;2023-07-29T10:22:59;100280.25;;;23.51;76.97
28004;BME280;15330;51.234;6.754;2023-07-29T10:25:27;100277.63;;;23.02;77.20
28004;BME280;15330;51.234;6.754;2023-07-29T10:27:56;100283.75;;;22.66;79.05
28004;BME280;15330;51.234;6.754;2023-07-29T10:30:25;100298.16;;;22.61;80.21
28004;BME280;15330;51.234;6.754;2023-07-29T10:32:51;100290.69;;;22.52;80.91
28004;BME280;15330;51.234;6.754;2023-07-29T10:35:17;100291.00;;;22.77;79.79
28004;BME280;15330;51.234;6.754;2023-07-29T10:37:43;100296.91;;;22.96;78.40
28004;BME280;15330;51.234;6.754;2023-07-29T10:40:11;100292.34;;;23.01;78.98
28004;BME280;15330;51.234;6.754;2023-07-29T10:42:37;100285.38;;;22.89;78.88
28004;BME280;15330;51.234;6.754;2023-07-29T10:45:18;100286.78;;;22.91;78.87
28004;BME280;15330;51.234;6.754;2023-07-29T10:47:44;100288.25;;;22.77;79.08
28004;BME280;15330;51.234;6.754;2023-07-29T10:50:18;100280.19;;;23.14;77.86
28004;BME280;15330;51.234;6.754;2023-07-29T10:52:49;100277.66;;;23.08;78.89
28004;BME280;15330;51.234;6.754;2023-07-29T10:55:26;100279.94;;;22.89;79.35
28004;BME280;15330;51.234;6.754;2023-07-29T10:58:07;100286.69;;;22.59;80.10
28004;BME280;15330;51.234;6.754;2023-07-29T11:00:33;100277.28;;;22.72;79.10
28004;BME280;15330;51.234;6.754;2023-07-29T11:03:01;100271.44;;;22.63;79.37
28004;BME280;15330;51.234;6.754;2023-07-29T11:05:44;100276.03;;;22.80;79.29
28004;BME280;15330;51.234;6.754;2023-07-29T11:08:36;100278.84;;;22.90;78.84
28004;BME280;15330;51.234;6.754;2023-07-29T11:11:02;100277.91;;;23.06;77.45
28004;BME280;15330;51.234;6.754;2023-07-29T11:13:29;100273.50;;;23.00;77.39
28004;BME280;15330;51.234;6.754;2023-07-29T11:15:56;100281.97;;;22.77;78.18
28004;BME280;15330;51.234;6.754;2023-07-29T11:18:26;100282.63;;;22.84;79.37
28004;BME280;15330;51.234;6.754;2023-07-29T11:20:53;100288.06;;;22.62;79.17
28004;BME280;15330;51.234;6.754;2023-07-29T11:23:19;100299.44;;;22.32;79.54
28004;BME280;15330;51.234;6.754;2023-07-29T11:25:45;100293.13;;;22.10;81.04
28004;BME280;15330;51.234;6.754;2023-07-29T11:28:10;100286.44;;;21.84;82.48
28004;BME280;15330;51.234;6.754;2023-07-29T11:30:39;100289.06;;;21.95;82.52
28004;BME280;15330;51.234;6.754;2023-07-29T11:33:04;100280.28;;;21.88;82.05
28004;BME280;15330;51.234;6.754;2023-07-29T11:35:32;100282.66;;;22.02;82.54
28004;BME280;15330;51.234;6.754;2023-07-29T11:37:57;100276.66;;;22.00;83.56
28004;BME280;15330;51.234;6.754;2023-07-29T11:40:23;100277.19;;;22.02;82.70
28004;BME280;15330;51.234;6.754;2023-07-29T11:42:52;100274.72;;;21.83;83.93
28004;BME280;15330;51.234;6.754;2023-07-29T11:45:18;100284.22;;;21.81;83.54
28004;BME280;15330;51.234;6.754;2023-07-29T11:47:44;100267.44;;;21.67;83.48
28004;BME280;15330;51.234;6.754;2023-07-29T11:50:11;100278.06;;;21.69;84.04
28004;BME280;15330;51.234;6.754;2023-07-29T11:52:42;100277.44;;;21.83;84.50
28004;BME280;15330;51.234;6.754;2023-07-29T11:55:08;100284.97;;;22.10;84.14
28004;BME280;15330;51.234;6.754;2023-07-29T11:57:36;100273.47;;;22.08;82.26
28004;BME280;15330;51.234;6.754;2023-07-29T12:00:03;100273.88;;;22.38;81.87
28004;BME280;15330;51.234;6.754;2023-07-29T12:02:30;100252.91;;;22.65;81.14
28004;BME280;15330;51.234;6.754;2023-07-29T12:04:56;100262.91;;;22.77;80.08
28004;BME280;15330;51.234;6.754;2023-07-29T12:07:22;100259.91;;;23.05;78.87
28004;BME280;15330;51.234;6.754;2023-07-29T12:09:49;100256.84;;;23.28;77.35
28004;BME280;15330;51.234;6.754;2023-07-29T12:12:15;100265.69;;;23.40;76.36
28004;BME280;15330;51.234;6.754;2023-07-29T12:14:44;100258.06;;;23.42;76.05
28004;BME280;15330;51.234;6.754;2023-07-29T12:17:10;100256.66;;;23.40;75.09
28004;BME280;15330;51.234;6.754;2023-07-29T12:19:37;100245.50;;;23.47;76.83
28004;BME280;15330;51.234;6.754;2023-07-29T12:22:04;100267.63;;;23.45;76.95
28004;BME280;15330;51.234;6.754;2023-07-29T12:24:31;100263.41;;;23.00;78.09
28004;BME280;15330;51.234;6.754;2023-07-29T12:26:56;100241.09;;;23.03;77.66
28004;BME280;15330;51.234;6.754;2023-07-29T12:29:22;100257.91;;;23.27;77.55
28004;BME280;15330;51.234;6.754;2023-07-29T12:31:48;100256.00;;;23.23;76.78
28004;BME280;15330;51.234;6.754;2023-07-29T12:34:20;100241.69;;;23.48;75.77
28004;BME280;15330;51.234;6.754;2023-07-29T12:36:48;100244.81;;;23.24;74.99
28004;BME280;15330;51.234;6.754;2023-07-29T12:39:24;100244.66;;;23.73;72.77
28004;BME280;15330;51.234;6.754;2023-07-29T12:41:51;100243.31;;;23.81;74.03
28004;BME280;15330;51.234;6.754;2023-07-29T12:44:17;100237.25;;;24.21;72.86